Time;durP1;ratioP1;P1;durP2;ratioP2;P2;SDS_P1;SDS_P2;PMS_P1;PMS_P2;Temp;Humidity;BMP_temperature;BMP_pressure;BME280_temperature;BME280_humidity;BME280_pressure;Samples;Min_cycle;Max_cycle;Signal;HPM_P1;HPM_P2
2023/01/20 00:00:24;;;;;;;12.38;6.55;;;;;;;-2.45;100.00;101129.09;5074876;28;20044;-76
2023/01/20 00:02:49;;;;;;;14.70;7.35;;;;;;;-2.45;100.00;101121.19;5041963;28;20032;-76
2023/01/20 00:05:15;;;;;;;19.30;6.85;;;;;;;-2.31;100.00;101130.13;5058807;28;20040;-76
2023/01/20 00:07:41;;;;;;;13.05;6.47;;;;;;;-2.26;100.00;101128.94;5058412;28;20044;-76
2023/01/20 00:10:07;;;;;;;13.35;6.90;;;;;;;-2.23;100.00;101133.19;5041913;28;20036;-77
2023/01/20 00:12:33;;;;;;;14.75;6.70;;;;;;;-2.21;100.00;101129.53;5058076;28;20032;-76
2023/01/20 00:14:59;;;;;;;9.77;6.18;;;;;;;-2.18;100.00;101140.84;5041181;28;20033;-77
2023/01/20 00:17:25;;;;;;;13.82;6.25;;;;;;;-2.16;100.00;101139.00;5041915;28;20044;-77
2023/01/20 00:19:50;;;;;;;13.55;7.53;;;;;;;-2.15;100.00;101135.41;5041796;28;20036;-76
2023/01/20 00:22:16;;;;;;;14.32;7.85;;;;;;;-2.14;100.00;101142.38;5041548;28;20467;-77
2023/01/20 00:24:42;;;;;;;11.10;5.68;;;;;;;-2.06;100.00;101140.19;5041618;28;20036;-76
2023/01/20 00:27:07;;;;;;;15.35;7.47;;;;;;;-2.12;100.00;101120.25;5041916;28;20040;-76
2023/01/20 00:29:33;;;;;;;13.93;6.90;;;;;;;-1.99;100.00;101136.25;5074549;28;20028;-77
2023/01/20 00:31:59;;;;;;;13.85;7.53;;;;;;;-1.96;100.00;101143.97;5041588;28;20041;-77
2023/01/20 00:34:24;;;;;;;11.80;6.55;;;;;;;-1.95;100.00;101139.59;5074478;28;20029;-77
2023/01/20 00:36:50;;;;;;;11.70;6.13;;;;;;;-1.89;100.00;101141.84;5041581;28;20043;-76
2023/01/20 00:39:16;;;;;;;18.05;7.93;;;;;;;-1.87;100.00;101143.47;5058124;28;20029;-76
2023/01/20 00:41:42;;;;;;;21.08;8.27;;;;;;;-1.86;100.00;101125.88;5057344;28;20044;-76
2023/01/20 00:44:07;;;;;;;17.45;9.00;;;;;;;-1.85;100.00;101130.22;5057727;28;20029;-76
2023/01/20 00:46:33;;;;;;;16.73;7.32;;;;;;;-1.83;100.00;101131.81;5041027;28;20063;-75
2023/01/20 00:48:59;;;;;;;12.15;6.78;;;;;;;-1.85;100.00;101130.22;5057875;28;20035;-76
2023/01/20 00:51:25;;;;;;;14.73;6.65;;;;;;;-1.85;100.00;101132.84;5041365;28;20071;-76
2023/01/20 00:53:50;;;;;;;12.88;6.97;;;;;;;-1.92;100.00;101121.78;5040719;28;20033;-76
2023/01/20 00:56:16;;;;;;;14.60;7.97;;;;;;;-1.90;100.00;101127.84;5041079;28;20498;-76
2023/01/20 00:58:43;;;;;;;12.82;6.78;;;;;;;-1.90;100.00;101124.38;5057690;28;20481;-77
2023/01/20 01:01:09;;;;;;;10.65;5.93;;;;;;;-1.89;100.00;101129.53;5057922;28;20372;-76
2023/01/20 01:03:35;;;;;;;13.18;7.07;;;;;;;-1.85;100.00;101132.84;5073753;28;20101;-76
2023/01/20 01:06:11;;;;;;;20.00;7.60;;;;;;;-1.87;100.00;101130.28;5040797;28;20470;-76
2023/01/20 01:08:37;;;;;;;13.68;7.22;;;;;;;-1.84;100.00;101131.91;5057260;28;20067;-75
2023/01/20 01:11:03;;;;;;;13.88;7.10;;;;;;;-1.82;100.00;101122.97;5040678;28;20075;-76
2023/01/20 01:13:30;;;;;;;9.50;4.45;;;;;;;-1.78;100.00;101126.28;5040881;28;20101;-76
2023/01/20 01:15:56;;;;;;;12.93;5.45;;;;;;;-1.77;100.00;101130.63;5073964;28;20040;-76
2023/01/20 01:18:22;;;;;;;12.27;6.88;;;;;;;-1.77;100.00;101126.19;5057297;28;20040;-76
2023/01/20 01:20:47;;;;;;;16.35;7.63;;;;;;;-1.73;100.00;101132.13;5040592;28;20039;-77
2023/01/20 01:23:13;;;;;;;10.05;5.82;;;;;;;-1.68;100.00;101129.25;5057047;28;20060;-76
2023/01/20 01:25:39;;;;;;;15.68;6.95;;;;;;;-1.65;100.00;101126.44;5040252;28;20032;-76
2023/01/20 01:28:04;;;;;;;16.27;6.45;;;;;;;-1.68;100.00;101118.69;5057086;28;20038;-76
2023/01/20 01:30:30;;;;;;;16.23;7.28;;;;;;;-1.72;100.00;101118.03;5040636;28;20040;-76
2023/01/20 01:32:56;;;;;;;20.30;8.30;;;;;;;-1.68;100.00;101130.09;5040539;28;20385;-76
2023/01/20 01:35:21;;;;;;;11.82;6.10;;;;;;;-1.66;100.00;101128.22;5040464;28;20086;-75
2023/01/20 01:37:47;;;;;;;13.20;7.47;;;;;;;-1.67;100.00;101123.88;5056564;28;20033;-76
2023/01/20 01:40:13;;;;;;;14.07;6.95;;;;;;;-1.69;100.00;101111.72;5040326;28;20033;-76
2023/01/20 01:42:39;;;;;;;13.45;7.38;;;;;;;-1.53;100.00;101117.81;5056617;28;20020;-76
2023/01/20 01:45:10;;;;;;;20.80;7.70;;;;;;;-1.47;100.00;101122.72;5040096;28;20044;-76
2023/01/20 01:47:43;;;;;;;13.50;6.05;;;;;;;-1.39;100.00;101114.38;5057031;28;20121;-76
2023/01/20 01:50:12;;;;;;;12.93;6.43;;;;;;;-1.37;100.00;101108.06;5056802;28;20025;-76
2023/01/20 01:52:39;;;;;;;11.75;5.90;;;;;;;-1.31;100.00;101106.84;5040020;28;20498;-76
2023/01/20 01:55:05;;;;;;;18.02;6.90;;;;;;;-1.28;100.00;101111.94;5040041;28;20036;-76
2023/01/20 01:57:31;;;;;;;10.70;4.53;;;;;;;-1.30;100.00;101107.69;5039910;28;20093;-76
2023/01/20 01:59:57;;;;;;;5.65;3.45;;;;;;;-1.25;100.00;101109.13;5040014;28;20375;-76
2023/01/20 02:02:23;;;;;;;10.40;4.65;;;;;;;-1.18;100.00;101117.53;5056432;28;20080;-76
2023/01/20 02:04:49;;;;;;;15.63;7.70;;;;;;;-1.18;100.00;101117.53;5039765;28;20063;-76
2023/01/20 02:07:17;;;;;;;12.88;7.07;;;;;;;-1.17;100.00;101124.50;5040056;28;20040;-76
2023/01/20 02:09:42;;;;;;;16.88;8.10;;;;;;;-1.19;100.00;101119.31;5039806;28;20036;-76
2023/01/20 02:12:12;;;;;;;22.10;8.70;;;;;;;-1.21;100.00;101112.44;5039821;28;20032;-75
2023/01/20 02:14:42;;;;;;;15.75;7.70;;;;;;;-1.18;100.00;101128.94;5055650;28;20402;-76
2023/01/20 02:17:13;;;;;;;13.98;7.18;;;;;;;-1.13;100.00;101118.94;5056312;28;20520;-75
2023/01/20 02:20:14;;;;;;;18.02;8.93;;;;;;;-1.01;100.00;101121.78;5056199;28;20032;-75
2023/01/20 02:22:48;;;;;;;30.63;12.82;;;;;;;-0.90;100.00;101117.56;5005233;28;20131;-76
2023/01/20 02:25:16;;;;;;;;;;;;;;;-0.78;100.00;101115.97;5056553;28;20528;-76
2023/01/20 02:27:51;;;;;;;17.75;9.55;;;;;;;-0.70;100.00;101111.06;5072742;28;19912;-76
2023/01/20 02:30:42;;;;;;;22.40;10.43;;;;;;;-0.67;100.00;101115.28;5055422;28;20116;-76
2023/01/20 02:33:41;;;;;;;23.35;10.93;;;;;;;-0.66;100.00;101114.38;5034778;28;20048;-76
2023/01/20 02:36:14;;;;;;;26.50;12.30;;;;;;;-0.63;100.00;101113.34;5012354;28;20154;-76
2023/01/20 02:38:52;;;;;;;27.15;13.73;;;;;;;-0.61;100.00;101119.34;5039387;28;20036;-75
2023/01/20 02:41:31;;;;;;;32.22;13.18;;;;;;;-0.53;100.00;101123.22;5039124;28;20037;-76
2023/01/20 02:44:07;;;;;;;25.48;12.25;;;;;;;-0.50;100.00;101128.31;5039266;28;20033;-76
2023/01/20 02:46:39;;;;;;;26.38;11.15;;;;;;;-0.49;100.00;101119.44;5055632;28;20029;-76
2023/01/20 02:49:43;;;;;;;35.58;16.17;;;;;;;-0.36;100.00;101134.53;5039236;28;20042;-76
2023/01/20 02:52:15;;;;;;;26.88;13.10;;;;;;;-0.36;100.00;101134.53;5055627;28;20032;-76
2023/01/20 02:54:45;;;;;;;33.72;14.68;;;;;;;-0.33;100.00;101127.25;5038909;28;20120;-76
2023/01/20 02:57:13;;;;;;;34.42;13.98;;;;;;;-0.30;100.00;101115.63;5055489;28;20490;-76
2023/01/20 02:59:42;;;;;;;34.38;15.85;;;;;;;-0.28;100.00;101122.53;5038755;28;20131;-76
2023/01/20 03:02:12;;;;;;;49.30;17.35;;;;;;;-0.25;100.00;101122.31;5055505;28;20028;-76
2023/01/20 03:04:43;;;;;;;33.50;13.88;;;;;;;-0.26;100.00;101122.44;5039165;28;20044;-76
2023/01/20 03:07:10;;;;;;;27.02;10.73;;;;;;;-0.24;100.00;101123.16;5055334;28;20043;-75
2023/01/20 03:09:46;;;;;;;45.83;19.48;;;;;;;-0.24;100.00;101115.25;5055467;28;20032;-76
2023/01/20 03:12:24;;;;;;;40.50;17.58;;;;;;;-0.19;100.00;101122.88;5071906;28;20068;-76
2023/01/20 03:14:51;;;;;;;37.58;16.35;;;;;;;-0.21;100.00;101120.34;5072265;28;20029;-75
2023/01/20 03:17:18;;;;;;;51.67;16.65;;;;;;;-0.23;100.00;101112.50;5038954;28;20159;-76
2023/01/20 03:19:44;;;;;;;23.10;10.35;;;;;;;-0.19;100.00;101118.44;5039066;28;20032;-75
2023/01/20 03:22:10;;;;;;;27.88;12.35;;;;;;;-0.19;100.00;101114.97;5038570;28;20044;-76
2023/01/20 03:24:37;;;;;;;36.22;13.63;;;;;;;-0.18;100.00;101117.50;5038913;28;20127;-76
2023/01/20 03:27:03;;;;;;;37.10;14.23;;;;;;;-0.20;100.00;101111.47;5038319;28;20037;-75
2023/01/20 03:29:29;;;;;;;34.95;14.55;;;;;;;-0.19;100.00;101114.97;5055446;28;20028;-75
2023/01/20 03:31:59;;;;;;;14.60;5.32;;;;;;;-0.19;100.00;101115.81;5038718;28;20042;-74
2023/01/20 03:34:27;;;;;;;31.92;11.77;;;;;;;-0.21;100.00;101115.06;5055330;28;20025;-75
2023/01/20 03:36:57;;;;;;;38.83;12.82;;;;;;;-0.20;100.00;101113.28;5055264;28;20474;-75
2023/01/20 03:39:23;;;;;;;29.65;13.38;;;;;;;-0.19;100.00;101110.50;5039167;28;20115;-75
2023/01/20 03:42:12;;;;;;;26.08;11.48;;;;;;;-0.16;100.00;101117.41;5071996;28;20024;-74
2023/01/20 03:45:11;;;;;;;27.65;11.18;;;;;;;-0.16;100.00;101105.06;5055235;28;20041;-75
2023/01/20 03:48:01;;;;;;;37.30;13.35;;;;;;;-0.15;100.00;101109.38;5039762;28;20086;-75
2023/01/20 03:50:49;;;;;;;33.80;12.23;;;;;;;-0.16;100.00;101101.53;5058650;28;20103;-75
2023/01/20 03:53:27;;;;;;;14.98;6.25;;;;;;;-0.15;100.00;101097.97;5058756;28;20024;-76
2023/01/20 03:56:22;;;;;;;35.95;13.82;;;;;;;-0.12;100.00;101095.97;5058967;28;20463;-75
2023/01/20 03:58:49;;;;;;;35.60;11.88;;;;;;;-0.26;100.00;101059.03;5041606;28;20055;-75
2023/01/20 04:01:17;;;;;;;33.08;13.00;;;;;;;-0.03;100.00;101086.59;5058575;28;20032;-77
2023/01/20 04:03:44;;;;;;;28.60;12.32;;;;;;;0.05;100.00;101086.09;5042083;28;20123;-75
2023/01/20 04:06:11;;;;;;;27.70;11.23;;;;;;;0.13;100.00;101092.59;5058370;28;20446;-75
2023/01/20 04:08:42;;;;;;;19.63;8.57;;;;;;;0.20;100.00;101083.28;5042062;28;20489;-74
2023/01/20 04:11:11;;;;;;;42.25;14.18;;;;;;;0.35;100.00;101089.38;5058330;28;20029;-75
2023/01/20 04:13:39;;;;;;;31.90;13.65;;;;;;;0.43;100.00;101089.72;5058144;28;20028;-75
2023/01/20 04:16:10;;;;;;;42.58;15.95;;;;;;;0.47;100.00;101073.63;5042043;28;20123;-75
2023/01/20 04:18:40;;;;;;;43.45;15.80;;;;;;;0.55;100.00;101082.72;5058662;28;20060;-75
2023/01/20 04:21:06;;;;;;;44.80;16.95;;;;;;;0.51;100.00;101081.25;5058229;28;20064;-75
2023/01/20 04:23:37;;;;;;;36.33;15.27;;;;;;;0.47;100.00;101074.47;5041908;28;20087;-74
2023/01/20 04:26:03;;;;;;;35.83;14.13;;;;;;;0.50;100.00;101076.06;5057650;28;20111;-75
2023/01/20 04:28:29;;;;;;;39.38;13.68;;;;;;;0.54;100.00;101085.50;5041614;28;20032;-75
2023/01/20 04:30:54;;;;;;;33.75;12.90;;;;;;;0.49;100.00;101084.97;5041686;28;20118;-75
2023/01/20 04:33:20;;;;;;;32.90;12.77;;;;;;;0.41;100.00;101067.78;5041714;28;20032;-74
2023/01/20 04:35:46;;;;;;;26.25;12.18;;;;;;;0.47;100.00;101089.50;5074569;28;20036;-74
2023/01/20 04:38:11;;;;;;;28.92;12.73;;;;;;;0.46;100.00;101082.53;5041556;28;20040;-74
2023/01/20 04:40:37;;;;;;;45.03;15.20;;;;;;;0.46;100.00;101082.53;5057945;28;20033;-75
2023/01/20 04:43:03;;;;;;;31.17;13.32;;;;;;;0.48;100.00;101088.53;5041486;28;20387;-75
2023/01/20 04:45:29;;;;;;;35.58;13.68;;;;;;;0.46;100.00;101090.47;5057415;28;20035;-74
2023/01/20 04:47:54;;;;;;;35.42;13.93;;;;;;;0.50;100.00;101090.13;5041466;28;20052;-74
2023/01/20 04:50:20;;;;;;;38.53;14.88;;;;;;;0.51;100.00;101080.41;5073888;28;20028;-74
2023/01/20 04:52:46;;;;;;;35.63;13.88;;;;;;;0.53;100.00;101084.66;5041150;28;20054;-75
2023/01/20 04:55:11;;;;;;;37.40;13.65;;;;;;;0.52;100.00;101076.81;5041295;28;20395;-74
2023/01/20 04:57:37;;;;;;;25.73;12.88;;;;;;;0.47;100.00;101063.88;5057683;28;20025;-75
2023/01/20 05:00:04;;;;;;;25.73;11.43;;;;;;;0.55;100.00;101071.31;5040557;28;20482;-74
2023/01/20 05:02:30;;;;;;;7.95;4.53;;;;;;;0.58;100.00;101066.69;5040863;28;20498;-75
2023/01/20 05:04:56;;;;;;;37.63;12.70;;;;;;;0.59;100.00;101062.22;5041000;28;20082;-74
2023/01/20 05:07:21;;;;;;;30.60;10.60;;;;;;;0.60;100.00;101058.63;5040726;28;20086;-75
2023/01/20 05:09:47;;;;;;;23.40;8.90;;;;;;;0.62;100.00;101067.31;5041130;28;20032;-75
2023/01/20 05:12:13;;;;;;;34.17;11.93;;;;;;;0.64;100.00;101063.59;5057287;28;20134;-74
2023/01/20 05:14:38;;;;;;;24.40;8.05;;;;;;;0.66;100.00;101060.84;5040856;28;20032;-74
2023/01/20 05:17:04;;;;;;;25.63;10.45;;;;;;;0.70;100.00;101064.97;5057032;28;20033;-74
2023/01/20 05:19:30;;;;;;;28.85;10.80;;;;;;;0.73;100.00;101064.78;5040766;28;20042;-75
2023/01/20 05:21:55;;;;;;;26.80;10.93;;;;;;;0.73;100.00;101054.19;5040741;28;20035;-76
2023/01/20 05:24:21;;;;;;;25.63;10.20;;;;;;;0.72;100.00;101049.84;5073876;28;20081;-75
2023/01/20 05:26:46;;;;;;;22.08;9.77;;;;;;;0.71;100.00;101053.44;5040328;28;20037;-74
2023/01/20 05:29:15;;;;;;;19.23;7.55;;;;;;;0.70;100.00;101058.84;5040636;28;20477;-74
2023/01/20 05:31:43;;;;;;;26.58;8.60;;;;;;;0.67;100.00;101051.97;5040321;28;20093;-74
2023/01/20 05:34:09;;;;;;;27.40;8.18;;;;;;;0.68;100.00;101050.16;5073614;28;20037;-75
2023/01/20 05:36:35;;;;;;;26.30;9.30;;;;;;;0.63;100.00;101046.00;5073418;28;20031;-75
2023/01/20 05:39:01;;;;;;;26.23;9.07;;;;;;;0.64;100.00;101052.19;5056365;28;20112;-75
2023/01/20 05:41:29;;;;;;;17.92;7.60;;;;;;;0.59;100.00;101043.69;5056919;28;20036;-75
2023/01/20 05:43:55;;;;;;;16.33;5.65;;;;;;;0.57;100.00;101040.31;5072917;28;20375;-74
2023/01/20 05:46:20;;;;;;;25.33;8.02;;;;;;;0.57;100.00;101041.16;5056293;28;20054;-75
2023/01/20 05:48:46;;;;;;;22.65;8.25;;;;;;;0.55;100.00;101034.25;5040197;28;20486;-75
2023/01/20 05:51:12;;;;;;;21.33;7.57;;;;;;;0.54;100.00;101037.88;5040177;28;20068;-75
2023/01/20 05:53:40;;;;;;;21.67;7.93;;;;;;;0.57;100.00;101040.31;5040110;28;20028;-74
2023/01/20 05:56:06;;;;;;;23.77;7.55;;;;;;;0.60;100.00;101029.50;5040015;28;20043;-74
2023/01/20 05:58:32;;;;;;;18.58;6.63;;;;;;;0.62;100.00;101024.97;5040119;28;20417;-74
2023/01/20 06:01:09;;;;;;;25.27;9.02;;;;;;;0.64;100.00;101023.91;5056520;28;20033;-74
2023/01/20 06:03:36;;;;;;;23.85;8.23;;;;;;;0.68;100.00;101026.34;5040072;28;20094;-74
2023/01/20 06:06:03;;;;;;;16.20;6.78;;;;;;;0.58;100.00;101026.97;5039650;28;20025;-75
2023/01/20 06:08:32;;;;;;;26.55;8.70;;;;;;;0.50;100.00;101031.09;5056396;28;20072;-74
2023/01/20 06:10:58;;;;;;;12.23;6.93;;;;;;;0.49;100.00;101046.13;5039224;28;20106;-74
2023/01/20 06:13:24;;;;;;;12.70;5.00;;;;;;;0.49;100.00;101040.81;5072359;28;20123;-74
2023/01/20 06:15:57;;;;;;;20.63;8.38;;;;;;;0.50;100.00;101036.38;5072641;28;20032;-76
2023/01/20 06:18:23;;;;;;;18.37;7.83;;;;;;;0.52;100.00;101042.41;5072469;28;20039;-75
2023/01/20 06:20:49;;;;;;;16.38;6.80;;;;;;;0.54;100.00;101036.06;5039630;28;20461;-75
2023/01/20 06:23:15;;;;;;;22.30;8.10;;;;;;;0.57;100.00;101045.59;5055893;28;20033;-75
2023/01/20 06:25:41;;;;;;;17.73;8.10;;;;;;;0.57;100.00;101058.81;5039403;28;20020;-75
2023/01/20 06:28:07;;;;;;;24.20;7.75;;;;;;;0.60;100.00;101063.91;5039229;28;20036;-75
2023/01/20 06:30:33;;;;;;;23.50;8.10;;;;;;;0.61;100.00;101060.31;5072173;28;20180;-75
2023/01/20 06:32:59;;;;;;;20.90;8.30;;;;;;;0.62;100.00;101051.44;5039412;28;20135;-75
2023/01/20 06:35:25;;;;;;;18.45;6.88;;;;;;;0.65;100.00;101051.22;5039137;28;20453;-75
2023/01/20 06:37:51;;;;;;;24.15;8.77;;;;;;;0.69;100.00;101058.00;5055989;28;20028;-74
2023/01/20 06:40:17;;;;;;;22.88;8.20;;;;;;;0.74;100.00;101050.59;5039333;28;20117;-75
2023/01/20 06:42:42;;;;;;;23.60;8.10;;;;;;;0.73;100.00;101050.69;5072484;28;20060;-76
2023/01/20 06:45:08;;;;;;;20.77;7.43;;;;;;;0.83;100.00;101042.00;5072170;28;20527;-75
2023/01/20 06:47:34;;;;;;;17.40;6.95;;;;;;;0.92;100.00;101052.91;5055757;28;20035;-74
2023/01/20 06:50:00;;;;;;;17.52;6.43;;;;;;;0.94;100.00;101043.06;5039082;28;20363;-74
2023/01/20 06:52:25;;;;;;;23.90;7.63;;;;;;;0.98;100.00;101045.41;5072988;28;20025;-75
2023/01/20 06:54:51;;;;;;;16.38;4.72;;;;;;;0.91;100.00;101024.75;5039141;28;20039;-75
2023/01/20 06:57:17;;;;;;;19.73;7.47;;;;;;;1.01;100.00;101047.84;5071639;28;20044;-74
2023/01/20 06:59:42;;;;;;;16.35;7.50;;;;;;;1.04;100.00;101046.78;5055444;28;20035;-75
2023/01/20 07:02:11;;;;;;;16.55;5.78;;;;;;;1.07;100.00;101043.91;5055699;28;20478;-75
2023/01/20 07:04:36;;;;;;;15.32;6.13;;;;;;;1.09;100.00;101032.25;5055736;28;20478;-74
2023/01/20 07:07:02;;;;;;;18.77;6.47;;;;;;;1.24;100.00;101046.19;5072762;28;20024;-74
2023/01/20 07:09:28;;;;;;;20.75;7.97;;;;;;;1.26;100.00;101044.28;5039023;28;20434;-75
2023/01/20 07:11:53;;;;;;;16.35;6.45;;;;;;;1.35;100.00;101063.13;5038898;28;20051;-74
2023/01/20 07:14:19;;;;;;;25.38;7.15;;;;;;;1.35;100.00;101048.13;5071784;28;20029;-74
2023/01/20 07:16:45;;;;;;;20.92;7.30;;;;;;;1.43;100.00;101053.72;5038933;28;20043;-74
2023/01/20 07:19:11;;;;;;;15.68;6.82;;;;;;;1.41;100.00;101050.31;5055660;28;20033;-75
2023/01/20 07:21:37;;;;;;;15.63;6.93;;;;;;;1.46;100.00;101050.00;5038590;28;20032;-75
2023/01/20 07:24:03;;;;;;;15.80;5.43;;;;;;;1.46;100.00;101044.69;5042127;28;20036;-76
2023/01/20 07:26:29;;;;;;;16.90;5.90;;;;;;;1.35;100.00;101042.81;5075509;28;20475;-74
2023/01/20 07:28:57;;;;;;;17.13;6.70;;;;;;;1.38;100.00;101047.88;5042962;28;20119;-74
2023/01/20 07:31:24;;;;;;;10.65;4.57;;;;;;;1.36;100.00;101044.50;5059199;28;20032;-74
2023/01/20 07:33:50;;;;;;;12.93;4.75;;;;;;;1.39;100.00;101043.44;5075592;28;20116;-75
2023/01/20 07:36:17;;;;;;;15.63;4.82;;;;;;;1.38;100.00;101047.88;5058626;28;20123;-75
2023/01/20 07:38:46;;;;;;;6.78;3.05;;;;;;;1.44;100.00;101047.44;5042202;28;20036;-75
2023/01/20 07:41:14;;;;;;;6.30;3.55;;;;;;;1.45;100.00;101051.78;5059264;28;20498;-75
2023/01/20 07:43:44;;;;;;;6.72;3.25;;;;;;;1.41;100.00;101030.94;5059203;28;20032;-75
2023/01/20 07:46:10;;;;;;;18.10;6.65;;;;;;;1.55;100.00;101057.28;5075592;28;20029;-75
2023/01/20 07:48:36;;;;;;;16.58;7.38;;;;;;;1.58;100.00;101057.03;5041895;28;20036;-75
2023/01/20 07:51:07;;;;;;;21.63;6.93;;;;;;;1.61;100.00;101045.38;5058401;28;20040;-75
2023/01/20 07:53:40;;;;;;;18.80;6.68;;;;;;;1.61;100.00;101048.88;5058958;28;20043;-75
2023/01/20 07:56:09;;;;;;;12.90;4.30;;;;;;;1.61;100.00;101043.56;5058496;28;20115;-74
2023/01/20 07:58:35;;;;;;;18.15;5.90;;;;;;;1.61;100.00;101048.88;5041706;28;20036;-75
2023/01/20 08:01:14;;;;;;;17.63;5.55;;;;;;;1.60;100.00;101055.13;5041631;28;20527;-75
2023/01/20 08:03:41;;;;;;;30.05;8.25;;;;;;;1.63;100.00;101052.25;5075290;28;20032;-76
2023/01/20 08:06:08;;;;;;;48.42;15.93;;;;;;;1.58;100.00;101041.13;5058488;28;20113;-76
2023/01/20 08:08:35;;;;;;;44.83;12.85;;;;;;;1.65;100.00;101055.66;5074618;28;20131;-75
2023/01/20 08:11:01;;;;;;;93.05;23.13;;;;;;;1.68;100.00;101058.06;5058321;28;20036;-75
2023/01/20 08:13:28;;;;;;;73.97;20.70;;;;;;;1.68;100.00;101058.06;5075090;28;20437;-74
2023/01/20 08:15:54;;;;;;;27.55;11.00;;;;;;;1.68;100.00;101060.72;5041715;28;20028;-75
2023/01/20 08:18:20;;;;;;;20.80;8.50;;;;;;;1.75;100.00;101074.41;5074833;28;20486;-74
2023/01/20 08:20:48;;;;;;;30.02;12.25;;;;;;;1.76;100.00;101066.31;5041092;28;20040;-76
2023/01/20 08:23:13;;;;;;;37.38;12.20;;;;;;;1.80;100.00;101066.97;5041198;28;20411;-76
2023/01/20 08:25:39;;;;;;;27.02;9.30;;;;;;;1.83;100.00;101077.34;5041072;28;20033;-76
2023/01/20 08:28:05;;;;;;;28.45;10.13;;;;;;;1.87;100.00;101084.09;5040965;28;20136;-76
2023/01/20 08:30:30;;;;;;;29.45;10.80;;;;;;;1.85;100.00;101080.69;5057924;28;20055;-76
2023/01/20 08:32:56;;;;;;;21.90;9.98;;;;;;;1.84;100.00;101079.03;5057674;28;20035;-76
2023/01/20 08:35:22;;;;;;;33.70;10.88;;;;;;;1.83;100.00;101079.16;5040458;28;20038;-76
2023/01/20 08:37:47;;;;;;;25.55;8.63;;;;;;;1.92;100.00;101086.41;5041630;28;20524;-75
2023/01/20 08:40:13;;;;;;;16.55;7.10;;;;;;;1.93;100.00;101096.06;5058273;28;20524;-75
2023/01/20 08:42:39;;;;;;;24.15;8.30;;;;;;;1.96;100.00;101098.50;5057487;28;20103;-75
2023/01/20 08:45:07;;;;;;;32.92;11.27;;;;;;;1.89;100.00;101074.22;5040652;28;20037;-76
2023/01/20 08:47:38;;;;;;;18.63;9.07;;;;;;;2.01;100.00;101095.50;5057774;28;20028;-76
2023/01/20 08:50:05;;;;;;;18.40;8.88;;;;;;;2.00;100.00;101105.28;5040976;28;20025;-76
2023/01/20 08:52:31;;;;;;;15.13;6.10;;;;;;;1.94;100.00;101087.16;5041158;28;20050;-76
2023/01/20 08:54:57;;;;;;;26.95;8.63;;;;;;;2.04;100.00;101103.22;5073904;28;20035;-76
2023/01/20 08:57:27;;;;;;;17.92;7.43;;;;;;;2.06;100.00;101101.31;5041111;28;20063;-75
2023/01/20 08:59:53;;;;;;;17.95;8.27;;;;;;;2.07;100.00;101101.22;5041147;28;20060;-75
2023/01/20 09:02:19;;;;;;;26.63;10.77;;;;;;;2.09;100.00;101104.63;5041035;28;20078;-76
2023/01/20 09:04:45;;;;;;;48.17;15.02;;;;;;;2.11;100.00;101104.47;5040758;28;20453;-76
2023/01/20 09:07:11;;;;;;;23.88;8.35;;;;;;;2.13;100.00;101114.03;5040611;28;20035;-75
2023/01/20 09:09:38;;;;;;;16.90;6.30;;;;;;;2.14;100.00;101110.44;5040852;28;20063;-75
2023/01/20 09:12:04;;;;;;;42.05;11.20;;;;;;;2.23;100.00;101113.34;5040978;28;20502;-76
2023/01/20 09:14:30;;;;;;;35.63;10.80;;;;;;;2.27;100.00;101107.69;5040971;28;20500;-76
2023/01/20 09:16:56;;;;;;;14.98;6.28;;;;;;;2.28;100.00;101108.56;5040538;28;20120;-76
2023/01/20 09:19:22;;;;;;;26.55;9.77;;;;;;;2.29;100.00;101103.13;5040288;28;20120;-82
2023/01/20 09:21:48;;;;;;;36.45;11.05;;;;;;;2.19;100.00;101087.03;5040238;28;20074;-80
2023/01/20 09:24:14;;;;;;;13.35;5.53;;;;;;;2.35;100.00;101115.09;5057377;28;20422;-80
2023/01/20 09:26:55;;;;;;;28.33;8.65;;;;;;;2.36;100.00;101122.94;5073649;28;20094;-80
2023/01/20 09:29:21;;;;;;;17.00;7.65;;;;;;;2.35;100.00;101125.69;5057907;28;20036;-80
2023/01/20 09:31:57;;;;;;;23.63;7.28;;;;;;;2.43;100.00;101131.28;5056845;28;20035;-80
2023/01/20 09:34:25;;;;;;;16.70;6.53;;;;;;;2.49;100.00;101136.16;5057382;28;20371;-80
2023/01/20 09:36:52;;;;;;;10.02;6.45;;;;;;;2.56;100.00;101145.34;5057086;28;20497;-81
2023/01/20 09:45:23;;;;;;;3.72;2.97;;;;;;;2.80;100.00;101139.13;5059193;28;20036;-79
2023/01/20 09:47:49;;;;;;;4.30;2.17;;;;;;;2.81;100.00;101128.41;5057276;28;20115;-79
2023/01/20 09:53:33;;;;;;;4.10;2.00;;;;;;;2.96;100.00;101136.16;5058850;28;20036;-79
2023/01/20 09:56:08;;;;;;;3.33;2.40;;;;;;;3.01;100.00;101140.16;5072616;28;20029;-79
2023/01/20 09:59:01;;;;;;;14.90;3.03;;;;;;;3.08;100.00;101135.25;5039204;28;20068;-80
2023/01/20 10:01:33;;;;;;;2.25;2.03;;;;;;;3.10;100.00;101141.28;5040278;28;20040;-79
2023/01/20 10:04:11;;;;;;;2.75;1.75;;;;;;;3.19;100.00;101132.59;5074293;28;20059;-80
2023/01/20 10:06:51;;;;;;;5.00;4.57;;;;;;;3.32;100.00;101151.09;5074202;28;20027;-79
2023/01/20 10:09:41;;;;;;;5.97;3.17;;;;;;;3.43;100.00;101159.06;5074263;28;20098;-79
2023/01/20 10:12:15;;;;;;;3.80;1.80;;;;;;;3.42;100.00;101157.38;5056552;28;20131;-80
2023/01/20 10:14:44;;;;;;;7.75;1.48;;;;;;;3.49;100.00;101169.25;5072884;28;20029;-79
2023/01/20 10:17:24;;;;;;;5.97;2.53;;;;;;;3.51;100.00;101166.44;5072572;28;20116;-79
2023/01/20 10:19:57;;;;;;;4.03;2.80;;;;;;;3.58;100.00;101175.66;5072566;28;20020;-79
2023/01/20 10:22:31;;;;;;;2.38;1.73;;;;;;;3.65;100.00;101178.66;5039863;28;20444;-78
2023/01/20 10:25:05;;;;;;;1.88;1.55;;;;;;;3.76;100.00;101178.69;5073021;28;20116;-79
2023/01/20 10:27:32;;;;;;;3.65;1.80;;;;;;;3.77;100.00;101169.72;5056432;28;20127;-79
2023/01/20 10:30:06;;;;;;;2.90;2.38;;;;;;;3.90;100.00;101183.72;5056243;28;20394;-79
2023/01/20 10:32:37;;;;;;;5.47;3.55;;;;;;;3.97;100.00;101187.59;5056226;28;20111;-79
2023/01/20 10:35:14;;;;;;;10.00;8.63;;;;;;;3.99;100.00;101178.66;5056065;28;20078;-79
2023/01/20 10:37:43;;;;;;;4.32;1.92;;;;;;;4.12;100.00;101192.66;5039906;28;20030;-79
2023/01/20 10:40:30;;;;;;;1.90;1.48;;;;;;;4.22;100.00;101198.94;5072355;28;20024;-79
2023/01/20 10:43:03;;;;;;;7.80;3.30;;;;;;;4.29;100.00;101194.81;5039887;28;20449;-78
2023/01/20 10:46:24;;;;;;;3.80;3.60;;;;;;;4.44;100.00;101205.19;5039158;28;20440;-79
2023/01/20 10:49:11;;;;;;;3.67;2.17;;;;;;;4.49;100.00;101193.16;5001707;28;20136;-79
2023/01/20 10:52:05;;;;;;;2.30;1.33;;;;;;;4.59;100.00;101203.94;5072654;28;20032;-79
2023/01/20 10:54:51;;;;;;;4.85;2.70;;;;;;;4.69;100.00;101207.53;5038996;28;20028;-78
2023/01/20 10:57:16;;;;;;;2.03;1.58;;;;;;;4.71;100.00;101205.59;5051369;28;20055;-79
2023/01/20 10:59:45;;;;;;;2.10;1.88;;;;;;;4.68;100.00;101197.81;5072173;28;20028;-78
2023/01/20 11:02:18;;;;;;;2.75;1.58;;;;;;;4.57;100.00;101195.22;5072373;28;20114;-79
2023/01/20 11:04:45;;;;;;;6.68;2.90;;;;;;;4.68;100.00;101208.47;5072337;28;20025;-79
2023/01/20 11:07:14;;;;;;;7.25;4.00;;;;;;;4.72;100.00;101211.75;5055559;28;20036;-78
2023/01/20 11:09:41;;;;;;;3.85;2.10;;;;;;;4.78;100.00;101214.75;5071901;28;20379;-78
2023/01/20 11:12:19;;;;;;;1.73;1.63;;;;;;;4.87;100.00;101217.63;5073332;28;20029;-78
2023/01/20 11:14:45;;;;;;;5.28;3.17;;;;;;;4.94;100.00;101211.66;5071920;28;20040;-78
2023/01/20 11:17:15;;;;;;;7.20;2.40;;;;;;;5.05;100.00;101213.41;5055632;28;20037;-78
2023/01/20 11:19:57;;;;;;;1.65;1.17;;;;;;;4.98;100.00;101217.59;5055284;28;20115;-79
2023/01/20 11:22:33;;;;;;;6.40;3.08;;;;;;;4.95;100.00;101221.34;5071861;28;20360;-79
2023/01/20 11:25:00;;;;;;;2.33;1.67;;;;;;;4.97;100.00;101221.22;5055681;28;20118;-79
2023/01/20 11:27:28;;;;;;;1.85;1.25;;;;;;;4.95;100.00;101220.47;5071928;28;20043;-79
2023/01/20 11:30:04;;;;;;;4.75;1.25;;;;;;;4.97;100.00;101221.22;5055493;28;20070;-78
2023/01/20 11:32:35;;;;;;;4.80;3.13;;;;;;;5.09;100.00;101219.34;5038833;28;20534;-78